createdAt,value
2024-01-07T00:01:29.660Z,99793.53
2024-01-07T00:03:57.202Z,99786.13
2024-01-07T00:06:23.957Z,99791.91
2024-01-07T00:08:50.545Z,99795.38
2024-01-07T00:11:17.170Z,99787.13
2024-01-07T00:13:43.877Z,99788.16
2024-01-07T00:16:14.818Z,99797.28
2024-01-07T00:19:08.252Z,99799.16
2024-01-07T00:21:35.909Z,99786.13
2024-01-07T00:24:02.679Z,99786.53
2024-01-07T00:26:29.263Z,99792.53
2024-01-07T00:28:55.970Z,99802.44
2024-01-07T00:31:22.765Z,99798.06
2024-01-07T00:33:49.618Z,99801.19
2024-01-07T00:36:16.326Z,99808.19
2024-01-07T00:38:43.107Z,99809.00
2024-01-07T00:41:09.774Z,99814.16
2024-01-07T00:43:36.416Z,99819.91
2024-01-07T00:46:03.277Z,99797.97
2024-01-07T00:48:29.967Z,99812.69
2024-01-07T00:50:56.725Z,99821.78
2024-01-07T00:53:23.438Z,99826.31
2024-01-07T00:55:50.046Z,99823.00
2024-01-07T00:58:16.968Z,99811.75
2024-01-07T01:00:43.871Z,99827.31
2024-01-07T01:03:10.554Z,99829.59
2024-01-07T01:05:37.381Z,99833.91
2024-01-07T01:08:04.319Z,99833.69
2024-01-07T01:10:30.945Z,99829.53
2024-01-07T01:12:57.532Z,99834.72
2024-01-07T01:15:24.220Z,99844.25
2024-01-07T01:17:51.007Z,99840.34
2024-01-07T01:20:17.745Z,99848.59
2024-01-07T01:22:44.307Z,99856.47
2024-01-07T01:25:12.117Z,99836.63
2024-01-07T01:27:38.852Z,99852.75
2024-01-07T01:30:06.237Z,99848.44
2024-01-07T01:32:33.006Z,99855.81
2024-01-07T01:34:59.682Z,99860.56
2024-01-07T01:37:26.391Z,99851.22
2024-01-07T01:39:53.118Z,99859.13
2024-01-07T01:42:19.826Z,99851.88
2024-01-07T01:44:47.704Z,99859.25
2024-01-07T01:47:14.644Z,99868.97
2024-01-07T01:49:41.770Z,99860.75
2024-01-07T01:52:10.166Z,99864.88
2024-01-07T01:54:39.957Z,99855.72
2024-01-07T01:57:06.990Z,99877.94
2024-01-07T01:59:34.988Z,99869.44
2024-01-07T02:02:02.651Z,99864.44
2024-01-07T02:04:30.885Z,99884.31
2024-01-07T02:06:57.671Z,99876.88
2024-01-07T02:09:24.384Z,99883.69
2024-01-07T02:12:04.765Z,99887.25
2024-01-07T02:14:31.467Z,99887.44
2024-01-07T02:16:58.332Z,99899.00
2024-01-07T02:19:25.005Z,99896.72
2024-01-07T02:21:52.295Z,99893.81
2024-01-07T02:24:19.605Z,99889.69
2024-01-07T02:26:46.430Z,99899.19
2024-01-07T02:29:13.070Z,99906.81
2024-01-07T02:31:39.801Z,99904.53
2024-01-07T02:34:06.746Z,99873.84
2024-01-07T02:36:33.602Z,99905.25
2024-01-07T02:39:00.258Z,99894.09
2024-01-07T02:41:27.801Z,99905.25
2024-01-07T02:43:54.803Z,99910.41
2024-01-07T02:46:21.995Z,99914.91
2024-01-07T02:48:48.707Z,99912.03
2024-01-07T02:51:15.440Z,99915.34
2024-01-07T02:53:42.068Z,99918.44
2024-01-07T02:56:09.980Z,99930.56
2024-01-07T02:58:36.898Z,99917.91
2024-01-07T03:01:09.043Z,99910.06
2024-01-07T03:03:35.783Z,99916.63
2024-01-07T03:06:03.094Z,99922.97
2024-01-07T03:08:29.813Z,99921.59
2024-01-07T03:10:56.441Z,99929.66
2024-01-07T03:13:23.076Z,99924.50
2024-01-07T03:15:49.682Z,99924.66
2024-01-07T03:18:16.335Z,99933.09
2024-01-07T03:20:43.102Z,99926.28
2024-01-07T03:23:09.654Z,99922.78
2024-01-07T03:25:36.249Z,99925.59
2024-01-07T03:28:02.899Z,99926.66
2024-01-07T03:30:29.546Z,99926.22
2024-01-07T03:32:56.461Z,99924.66
2024-01-07T03:35:25.218Z,99934.41
2024-01-07T03:37:51.912Z,99934.63
2024-01-07T03:40:18.799Z,99929.09
2024-01-07T03:42:45.506Z,99935.28
2024-01-07T03:45:12.105Z,99935.28
2024-01-07T03:47:38.819Z,99934.00
2024-01-07T03:50:05.849Z,99935.22
2024-01-07T03:52:34.046Z,99939.38
2024-01-07T03:55:00.873Z,99932.72
2024-01-07T03:57:27.648Z,99941.22
2024-01-07T03:59:54.306Z,99941.03
2024-01-07T04:02:20.966Z,99947.88
2024-01-07T04:04:47.605Z,99939.31
2024-01-07T04:07:14.293Z,99947.41
2024-01-07T04:09:40.944Z,99952.94
2024-01-07T04:12:07.559Z,99946.41
2024-01-07T04:14:34.978Z,99956.75
2024-01-07T04:17:01.840Z,99956.69
2024-01-07T04:19:28.516Z,99963.28
2024-01-07T04:21:55.269Z,99973.84
2024-01-07T04:24:21.909Z,99959.13
2024-01-07T04:26:48.627Z,99966.69
2024-01-07T04:29:15.195Z,99969.75
2024-01-07T04:31:41.955Z,99968.56
2024-01-07T04:34:08.694Z,99972.06
2024-01-07T04:36:35.414Z,99975.19
2024-01-07T04:39:02.136Z,99974.38
2024-01-07T04:41:28.783Z,99976.84
2024-01-07T04:43:55.381Z,99979.91
2024-01-07T04:46:21.998Z,99986.56
2024-01-07T04:48:48.684Z,99986.72
2024-01-07T04:51:15.654Z,99986.72
2024-01-07T04:53:42.255Z,99989.38
2024-01-07T04:56:08.897Z,99997.59
2024-01-07T04:58:35.541Z,99987.88
2024-01-07T05:01:02.352Z,99997.41
2024-01-07T05:03:29.293Z,99992.28
2024-01-07T05:05:55.994Z,99992.09
2024-01-07T05:08:25.957Z,100011.50
2024-01-07T05:10:53.550Z,100005.50
2024-01-07T05:13:20.241Z,100013.34
2024-01-07T05:15:47.940Z,100019.28
2024-01-07T05:18:16.812Z,100015.81
2024-01-07T05:20:45.355Z,100022.66
2024-01-07T05:23:11.968Z,100026.34
2024-01-07T05:25:38.766Z,100022.66
2024-01-07T05:28:05.624Z,100022.00
2024-01-07T05:30:32.294Z,100015.19
2024-01-07T05:32:59.021Z,100033.78
2024-01-07T05:35:25.680Z,100039.88
2024-01-07T05:37:52.307Z,100037.00
2024-01-07T05:40:19.034Z,100040.88
2024-01-07T05:42:45.677Z,100042.94
2024-01-07T05:45:12.326Z,100036.03
2024-01-07T05:47:38.929Z,100046.16
2024-01-07T05:50:05.913Z,100040.19
2024-01-07T05:52:32.544Z,100046.63
2024-01-07T05:54:59.646Z,100050.69
2024-01-07T05:57:26.387Z,100056.00
2024-01-07T05:59:54.833Z,100026.09
2024-01-07T06:02:24.017Z,100069.19
2024-01-07T06:04:50.842Z,100065.50
2024-01-07T06:07:17.768Z,100065.28
2024-01-07T06:09:44.503Z,100069.81
2024-01-07T06:12:11.159Z,100066.50
2024-01-07T06:14:37.701Z,100073.53
2024-01-07T06:17:04.567Z,100064.84
2024-01-07T06:19:31.407Z,100084.13
2024-01-07T06:21:58.198Z,100079.16
2024-01-07T06:24:25.039Z,100085.72
2024-01-07T06:26:51.687Z,100089.41
2024-01-07T06:29:18.296Z,100083.78
2024-01-07T06:31:46.506Z,100097.81
2024-01-07T06:34:16.534Z,100097.34
2024-01-07T06:36:43.774Z,100105.97
2024-01-07T06:39:10.886Z,100115.00
2024-01-07T06:41:37.449Z,100117.31
2024-01-07T06:44:04.493Z,100108.81
2024-01-07T06:46:31.398Z,100109.19
2024-01-07T06:48:58.234Z,100127.28
2024-01-07T06:51:24.870Z,100129.88
2024-01-07T06:53:51.614Z,100130.06
2024-01-07T06:56:18.294Z,100127.56
2024-01-07T06:58:45.498Z,100142.38
2024-01-07T07:01:12.987Z,100124.88
2024-01-07T07:06:08.126Z,100142.16
2024-01-07T07:08:34.712Z,100152.34
2024-01-07T07:11:02.202Z,100151.88
2024-01-07T07:13:28.869Z,100155.03
2024-01-07T07:15:55.521Z,100166.38
2024-01-07T07:18:22.984Z,100150.66
2024-01-07T07:20:49.632Z,100165.53
2024-01-07T07:23:16.331Z,100165.25
2024-01-07T07:25:42.914Z,100147.63
2024-01-07T07:28:09.698Z,100164.78
2024-01-07T07:30:36.764Z,100169.16
2024-01-07T07:33:04.198Z,100166.72
2024-01-07T07:35:31.009Z,100175.25
2024-01-07T07:37:57.777Z,100180.00
2024-01-07T07:40:24.379Z,100175.03
2024-01-07T07:42:51.033Z,100185.84
2024-01-07T07:45:17.676Z,100175.84
2024-01-07T07:47:46.727Z,100182.88
2024-01-07T07:50:13.835Z,100183.91
2024-01-07T07:52:42.945Z,100195.91
2024-01-07T07:55:10.326Z,100196.00
2024-01-07T07:57:38.885Z,100203.22
2024-01-07T08:00:09.254Z,100180.63
2024-01-07T08:02:35.903Z,100211.91
2024-01-07T08:05:02.512Z,100216.78
2024-01-07T08:07:29.195Z,100209.88
2024-01-07T08:09:58.204Z,100214.09
2024-01-07T08:12:25.191Z,100210.22
2024-01-07T08:14:51.828Z,100212.72
2024-01-07T08:17:18.422Z,100226.41
2024-01-07T08:19:45.260Z,100200.53
2024-01-07T08:22:12.096Z,100230.53
2024-01-07T08:24:39.059Z,100230.16
2024-01-07T08:27:05.734Z,100226.97
2024-01-07T08:29:32.509Z,100228.97
2024-01-07T08:31:59.641Z,100237.00
2024-01-07T08:34:26.639Z,100239.53
2024-01-07T08:36:55.153Z,100245.53
2024-01-07T08:39:21.741Z,100245.53
2024-01-07T08:41:48.444Z,100243.84
2024-01-07T08:44:15.058Z,100260.94
2024-01-07T08:46:41.948Z,100253.44
2024-01-07T08:49:08.756Z,100249.66
2024-01-07T08:51:35.562Z,100252.97
2024-01-07T08:54:02.468Z,100255.22
2024-01-07T08:56:29.055Z,100258.56
2024-01-07T08:58:55.810Z,100256.88
2024-01-07T09:01:22.664Z,100259.38
2024-01-07T09:03:49.410Z,100255.03
2024-01-07T09:06:16.096Z,100258.31
2024-01-07T09:08:43.617Z,100257.09
2024-01-07T09:11:13.544Z,100267.44
2024-01-07T09:13:44.130Z,100273.75
2024-01-07T09:16:12.802Z,100279.56
2024-01-07T09:18:40.552Z,100285.66
2024-01-07T09:21:07.549Z,100292.31
2024-01-07T09:23:37.505Z,100296.69
2024-01-07T09:26:04.389Z,100289.91
2024-01-07T09:28:31.147Z,100293.19
2024-01-07T09:30:57.820Z,100283.19
2024-01-07T09:33:24.626Z,100291.50
2024-01-07T09:35:51.953Z,100296.50
2024-01-07T09:38:19.125Z,100289.38
2024-01-07T09:40:45.901Z,100299.47
2024-01-07T09:43:13.213Z,100296.47
2024-01-07T09:45:42.524Z,100298.16
2024-01-07T09:48:09.637Z,100276.50
2024-01-07T09:50:36.424Z,100293.63
2024-01-07T09:53:03.548Z,100291.13
2024-01-07T09:55:38.835Z,100280.22
2024-01-07T09:58:06.896Z,100295.13
2024-01-07T10:00:34.652Z,100298.44
2024-01-07T10:03:01.588Z,100300.56
2024-01-07T10:05:28.222Z,100288.38
2024-01-07T10:07:56.780Z,100275.72
2024-01-07T10:10:23.656Z,100297.69
2024-01-07T10:12:50.310Z,100297.44
2024-01-07T10:15:17.120Z,100301.41
2024-01-07T10:17:44.097Z,100288.81
2024-01-07T10:20:11.477Z,100318.03
2024-01-07T10:22:41.478Z,100305.47
2024-01-07T10:25:11.959Z,100309.34
2024-01-07T10:27:39.397Z,100310.06
2024-01-07T10:30:07.583Z,100318.00
2024-01-07T10:32:42.604Z,100317.75
2024-01-07T10:35:17.594Z,100329.69
2024-01-07T10:37:46.140Z,100320.16
2024-01-07T10:40:13.630Z,100322.84
2024-01-07T10:42:44.378Z,100323.84
2024-01-07T10:45:12.022Z,100326.47
2024-01-07T10:47:42.687Z,100328.13
2024-01-07T10:50:12.778Z,100331.94
2024-01-07T10:52:41.706Z,100333.59
2024-01-07T10:55:14.331Z,100313.81
2024-01-07T10:57:45.847Z,100331.88
2024-01-07T11:00:19.737Z,100327.84
2024-01-07T11:02:54.929Z,100325.72
2024-01-07T11:05:32.115Z,100323.75
2024-01-07T11:08:21.251Z,100330.97
2024-01-07T11:10:53.387Z,100331.91
2024-01-07T11:13:41.290Z,100330.19
2024-01-07T11:16:15.279Z,100329.88
2024-01-07T11:18:52.962Z,100316.97
2024-01-07T11:21:25.697Z,100327.16
2024-01-07T11:23:54.155Z,100330.72
2024-01-07T11:26:24.041Z,100344.09
2024-01-07T11:28:54.393Z,100349.25
2024-01-07T11:31:22.793Z,100352.13
2024-01-07T11:33:51.482Z,100348.06
2024-01-07T11:36:19.229Z,100349.06
2024-01-07T11:38:51.246Z,100348.94
2024-01-07T11:41:21.767Z,100350.63
2024-01-07T11:43:55.829Z,100352.50
2024-01-07T11:46:26.262Z,100345.91
2024-01-07T11:49:01.287Z,100347.19
2024-01-07T11:51:33.054Z,100352.63
2024-01-07T11:54:01.059Z,100353.25
2024-01-07T11:56:30.898Z,100356.19
2024-01-07T11:58:58.477Z,100331.78
2024-01-07T12:01:27.540Z,100361.88
2024-01-07T12:03:57.582Z,100364.78
2024-01-07T12:06:27.591Z,100339.78
2024-01-07T12:08:54.422Z,100368.06
2024-01-07T12:11:21.985Z,100368.56
2024-01-07T12:13:51.498Z,100369.19
2024-01-07T12:16:18.335Z,100371.03
2024-01-07T12:18:45.209Z,100369.75
2024-01-07T12:21:12.006Z,100363.84
2024-01-07T12:23:41.668Z,100354.63
2024-01-07T12:26:14.905Z,100371.22
2024-01-07T12:28:42.705Z,100367.06
2024-01-07T12:31:10.375Z,100378.72
2024-01-07T12:33:41.639Z,100380.34
2024-01-07T12:36:08.738Z,100375.41
2024-01-07T12:38:39.034Z,100393.84
2024-01-07T12:41:06.285Z,100390.00
2024-01-07T12:43:33.155Z,100392.84
2024-01-07T12:46:05.764Z,100388.50
2024-01-07T12:48:33.271Z,100389.31
2024-01-07T12:51:00.814Z,100396.22
2024-01-07T12:53:27.512Z,100374.59
2024-01-07T12:55:54.857Z,100362.75
2024-01-07T12:58:22.209Z,100399.31
2024-01-07T13:00:48.985Z,100401.22
2024-01-07T13:03:18.796Z,100402.75
2024-01-07T13:05:47.596Z,100401.25
2024-01-07T13:08:14.747Z,100408.66
2024-01-07T13:10:45.607Z,100410.16
2024-01-07T13:13:16.053Z,100408.13
2024-01-07T13:15:43.814Z,100406.47
2024-01-07T13:18:13.451Z,100414.97
2024-01-07T13:20:43.434Z,100425.88
2024-01-07T13:23:10.201Z,100428.34
2024-01-07T13:25:36.896Z,100423.53
2024-01-07T13:28:03.993Z,100428.09
2024-01-07T13:30:31.081Z,100424.19
2024-01-07T13:32:58.509Z,100424.53
2024-01-07T13:35:26.423Z,100415.25
2024-01-07T13:37:53.223Z,100429.47
2024-01-07T13:40:20.172Z,100419.13
2024-01-07T13:42:49.761Z,100422.44
2024-01-07T13:45:18.034Z,100416.75
2024-01-07T13:47:44.745Z,100416.38
2024-01-07T13:50:11.553Z,100416.94
2024-01-07T13:52:38.304Z,100424.91
2024-01-07T13:55:05.593Z,100422.09
2024-01-07T13:57:32.470Z,100433.66
2024-01-07T13:59:59.566Z,100434.34
2024-01-07T14:02:26.279Z,100444.19
2024-01-07T14:04:53.096Z,100443.34
2024-01-07T14:07:22.382Z,100420.31
2024-01-07T14:09:49.186Z,100443.34
2024-01-07T14:12:15.819Z,100454.56
2024-01-07T14:14:42.516Z,100452.69
2024-01-07T14:17:09.495Z,100444.34
2024-01-07T14:19:36.318Z,100451.56
2024-01-07T14:22:03.269Z,100460.13
2024-01-07T14:24:30.046Z,100456.66
2024-01-07T14:26:58.344Z,100455.97
2024-01-07T14:29:25.920Z,100446.63
2024-01-07T14:31:52.614Z,100451.53
2024-01-07T14:34:19.707Z,100472.41
2024-01-07T14:36:46.628Z,100467.72
2024-01-07T14:39:15.409Z,100473.91
2024-01-07T14:41:42.518Z,100449.56
2024-01-07T14:44:12.426Z,100460.38
2024-01-07T14:46:40.229Z,100462.03
2024-01-07T14:49:08.309Z,100447.34
2024-01-07T14:51:35.517Z,100462.34
2024-01-07T14:54:03.951Z,100465.38
2024-01-07T14:56:30.676Z,100464.53
2024-01-07T14:58:57.581Z,100449.31
2024-01-07T15:01:25.369Z,100466.72
2024-01-07T15:03:52.228Z,100469.22
2024-01-07T15:06:18.999Z,100469.25
2024-01-07T15:08:45.729Z,100462.25
2024-01-07T15:11:13.448Z,100469.09
2024-01-07T15:13:41.227Z,100479.47
2024-01-07T15:16:08.428Z,100456.75
2024-01-07T15:18:38.398Z,100480.63
2024-01-07T15:21:06.976Z,100460.00
2024-01-07T15:23:33.961Z,100455.78
2024-01-07T15:26:00.646Z,100464.97
2024-01-07T15:28:27.615Z,100495.22
2024-01-07T15:30:54.539Z,100493.19
2024-01-07T15:33:21.475Z,100478.16
2024-01-07T15:35:48.988Z,100484.81
2024-01-07T15:38:15.661Z,100489.16
2024-01-07T15:40:43.231Z,100483.16
2024-01-07T15:43:13.241Z,100493.53
2024-01-07T15:45:39.973Z,100491.19
2024-01-07T15:48:07.114Z,100494.72
2024-01-07T15:50:33.838Z,100497.38
2024-01-07T15:53:00.657Z,100502.41
2024-01-07T15:55:27.855Z,100501.38
2024-01-07T15:57:54.796Z,100508.25
2024-01-07T16:00:21.558Z,100514.59
2024-01-07T16:02:48.493Z,100509.59
2024-01-07T16:05:15.712Z,100516.78
2024-01-07T16:07:42.318Z,100516.28
2024-01-07T16:10:09.534Z,100529.50
2024-01-07T16:12:36.486Z,100518.78
2024-01-07T16:15:03.921Z,100522.97
2024-01-07T16:17:30.809Z,100527.97
2024-01-07T16:19:57.775Z,100528.31
2024-01-07T16:22:24.663Z,100524.16
2024-01-07T16:24:52.010Z,100535.66
2024-01-07T16:27:18.963Z,100539.34
2024-01-07T16:29:48.733Z,100520.63
2024-01-07T16:32:15.649Z,100547.53
2024-01-07T16:34:42.865Z,100532.00
2024-01-07T16:37:09.843Z,100538.69
2024-01-07T16:39:36.784Z,100541.66
2024-01-07T16:42:06.133Z,100550.53
2024-01-07T16:44:35.216Z,100544.00
2024-01-07T16:47:02.214Z,100552.03
2024-01-07T16:51:59.402Z,100549.84
2024-01-07T16:54:26.106Z,100560.56
2024-01-07T16:56:52.857Z,100561.41
2024-01-07T16:59:22.253Z,100552.03
2024-01-07T17:01:49.072Z,100553.22
2024-01-07T17:04:15.765Z,100541.00
2024-01-07T17:06:42.592Z,100556.41
2024-01-07T17:09:10.323Z,100561.59
2024-01-07T17:11:39.015Z,100543.69
2024-01-07T17:14:05.727Z,100560.41
2024-01-07T17:16:32.377Z,100558.91
2024-01-07T17:18:59.523Z,100552.56
2024-01-07T17:21:26.374Z,100562.94
2024-01-07T17:23:54.527Z,100567.63
2024-01-07T17:26:21.935Z,100550.75
2024-01-07T17:28:48.712Z,100548.91
2024-01-07T17:31:15.779Z,100565.09
2024-01-07T17:33:42.640Z,100551.91
2024-01-07T17:36:09.475Z,100564.25
2024-01-07T17:38:36.081Z,100563.94
2024-01-07T17:41:03.160Z,100569.94
2024-01-07T17:43:30.164Z,100557.25
2024-01-07T17:45:56.944Z,100584.53
2024-01-07T17:48:23.839Z,100548.09
2024-01-07T17:50:50.798Z,100579.34
2024-01-07T17:53:18.246Z,100573.50
2024-01-07T17:55:45.379Z,100585.69
2024-01-07T17:58:12.259Z,100588.03
2024-01-07T18:00:39.224Z,100536.72
2024-01-07T18:03:10.477Z,100562.13
2024-01-07T18:05:37.426Z,100586.69
2024-01-07T18:08:04.785Z,100593.06
2024-01-07T18:10:31.966Z,100601.44
2024-01-07T18:12:59.228Z,100598.75
2024-01-07T18:15:26.494Z,100559.47
2024-01-07T18:17:53.420Z,100600.78
2024-01-07T18:20:21.855Z,100607.25
2024-01-07T18:22:49.073Z,100602.59
2024-01-07T18:25:17.281Z,100607.94
2024-01-07T18:27:45.310Z,100616.31
2024-01-07T18:30:12.656Z,100606.78
2024-01-07T18:32:39.787Z,100600.59
2024-01-07T18:35:07.112Z,100616.81
2024-01-07T18:37:34.233Z,100617.47
2024-01-07T18:40:02.120Z,100615.47
2024-01-07T18:42:29.217Z,100614.16
2024-01-07T18:44:56.232Z,100592.06
2024-01-07T18:47:28.049Z,100617.31
2024-01-07T18:49:55.240Z,100604.28
2024-01-07T18:52:21.902Z,100604.59
2024-01-07T18:54:48.467Z,100623.69
2024-01-07T18:57:17.598Z,100614.31
2024-01-07T18:59:44.505Z,100617.16
2024-01-07T19:02:11.409Z,100613.47
2024-01-07T19:04:38.551Z,100613.47
2024-01-07T19:07:05.584Z,100606.28
2024-01-07T19:09:32.505Z,100629.66
2024-01-07T19:11:59.207Z,100627.50
2024-01-07T19:14:26.027Z,100635.84
2024-01-07T19:16:53.181Z,100634.00
2024-01-07T19:19:20.099Z,100615.66
2024-01-07T19:21:49.956Z,100638.53
2024-01-07T19:24:16.706Z,100635.69
2024-01-07T19:26:45.565Z,100641.56
2024-01-07T19:29:21.727Z,100638.06
2024-01-07T19:31:48.657Z,100639.69
2024-01-07T19:34:15.380Z,100628.69
2024-01-07T19:36:42.258Z,100642.91
2024-01-07T19:39:12.326Z,100646.91
2024-01-07T19:41:39.768Z,100640.25
2024-01-07T19:44:08.582Z,100639.06
2024-01-07T19:46:35.861Z,100637.38
2024-01-07T19:49:04.775Z,100643.75
2024-01-07T19:51:31.599Z,100645.06
2024-01-07T19:53:58.703Z,100644.06
2024-01-07T19:56:25.721Z,100626.16
2024-01-07T19:58:53.138Z,100650.41
2024-01-07T20:01:20.428Z,100641.41
2024-01-07T20:03:47.359Z,100664.13
2024-01-07T20:06:15.020Z,100650.59
2024-01-07T20:08:45.704Z,100660.63
2024-01-07T20:11:25.233Z,100642.06
2024-01-07T20:13:53.082Z,100657.63
2024-01-07T20:16:21.683Z,100651.44
2024-01-07T20:18:54.075Z,100667.81
2024-01-07T20:21:28.053Z,100680.84
2024-01-07T20:23:55.996Z,100682.22
2024-01-07T20:26:23.813Z,100672.31
2024-01-07T20:28:55.757Z,100676.50
2024-01-07T20:31:25.604Z,100700.44
2024-01-07T20:33:56.306Z,100663.78
2024-01-07T20:36:23.403Z,100696.06
2024-01-07T20:39:04.045Z,100689.88
2024-01-07T20:41:31.001Z,100688.38
2024-01-07T20:43:57.928Z,100665.25
2024-01-07T20:46:24.903Z,100688.84
2024-01-07T20:48:52.217Z,100693.72
2024-01-07T20:51:19.137Z,100685.66
2024-01-07T20:53:45.928Z,100691.19
2024-01-07T20:56:13.184Z,100688.66
2024-01-07T20:58:39.986Z,100683.81
2024-01-07T21:01:07.396Z,100678.63
2024-01-07T21:03:34.760Z,100696.03
2024-01-07T21:06:02.553Z,100674.13
2024-01-07T21:08:30.152Z,100690.69
2024-01-07T21:10:58.885Z,100688.84
2024-01-07T21:13:25.900Z,100691.84
2024-01-07T21:15:55.461Z,100665.91
2024-01-07T21:18:22.398Z,100697.91
2024-01-07T21:20:50.842Z,100702.41
2024-01-07T21:23:19.709Z,100691.53
2024-01-07T21:25:47.036Z,100715.59
2024-01-07T21:28:14.494Z,100714.22
2024-01-07T21:30:41.841Z,100693.31
2024-01-07T21:33:08.956Z,100710.91
2024-01-07T21:35:35.815Z,100714.75
2024-01-07T21:38:02.848Z,100711.22
2024-01-07T21:40:29.663Z,100700.66
2024-01-07T21:42:56.615Z,100713.88
2024-01-07T21:45:24.018Z,100715.72
2024-01-07T21:47:54.222Z,100706.31
2024-01-07T21:50:23.820Z,100699.13
2024-01-07T21:53:04.158Z,100713.34
2024-01-07T21:55:38.985Z,100609.03
2024-01-07T21:58:05.870Z,100674.16
2024-01-07T22:00:32.711Z,100698.91
2024-01-07T22:03:00.206Z,100716.34
2024-01-07T22:05:27.240Z,100738.06
2024-01-07T22:07:54.033Z,100719.81
2024-01-07T22:10:20.703Z,100727.31
2024-01-07T22:12:47.440Z,100739.34
2024-01-07T22:15:14.586Z,100720.75
2024-01-07T22:17:41.673Z,100747.34
2024-01-07T22:20:08.774Z,100714.16
2024-01-07T22:22:35.523Z,100743.31
2024-01-07T22:25:02.418Z,100728.41
2024-01-07T22:27:29.165Z,100756.66
2024-01-07T22:29:55.823Z,100743.31
2024-01-07T22:32:22.765Z,100746.50
2024-01-07T22:34:49.504Z,100716.69
2024-01-07T22:37:16.134Z,100748.03
2024-01-07T22:39:43.289Z,100746.06
2024-01-07T22:42:10.027Z,100727.78
2024-01-07T22:44:36.749Z,100748.38
2024-01-07T22:47:03.522Z,100745.88
2024-01-07T22:49:30.195Z,100748.03
2024-01-07T22:51:59.090Z,100726.44
2024-01-07T22:54:25.761Z,100752.72
2024-01-07T22:56:52.463Z,100748.88
2024-01-07T22:59:19.852Z,100748.88
2024-01-07T23:01:46.893Z,100755.41
2024-01-07T23:04:13.651Z,100740.03
2024-01-07T23:06:41.210Z,100762.13
2024-01-07T23:09:09.005Z,100763.81
2024-01-07T23:11:36.174Z,100758.47
2024-01-07T23:14:05.427Z,100760.66
2024-01-07T23:16:32.561Z,100750.91
2024-01-07T23:18:59.394Z,100762.47
2024-01-07T23:21:29.886Z,100759.66
2024-01-07T23:23:56.690Z,100765.66
2024-01-07T23:26:23.645Z,100761.50
2024-01-07T23:28:50.445Z,100766.84
2024-01-07T23:31:17.468Z,100746.94
2024-01-07T23:33:44.290Z,100765.00
2024-01-07T23:36:11.123Z,100757.97
2024-01-07T23:38:38.215Z,100764.69
2024-01-07T23:41:06.149Z,100770.53
2024-01-07T23:43:33.311Z,100765.13
2024-01-07T23:46:00.067Z,100776.50
2024-01-07T23:48:27.351Z,100759.28
2024-01-07T23:50:54.106Z,100772.00
2024-01-07T23:53:20.930Z,100752.28
2024-01-07T23:55:47.877Z,100761.63
2024-01-07T23:58:14.630Z,100763.84
